San Fernando, Trinidad and Tobago
Current Conditions -  °F | °C
As of 2:00 PM on Thursday 18 Dec 2014 (Local Time) from TTPP Reporting Station
Rain Showers Rain Showers  
Wind Chill: 32°   Ceiling: 1400
Heat Index: 36°   Visibility: 5mi
Dew Point: 22°   Wind: 10mph
Humidity: 55%   Direction: 110°ESE
Pressure: 29.85"   Gusts: NA
Location:  10.25°N, 61.46°W
Report Text: TTPP 181800Z 11009KT 8000 VCSH BKN014TCU 32/22 Q1011 NOSIG
Loading
Personal Weather Stations






























Interactive Weather Map New forecast layout! Learn more

10-Day Weather Forecast

Advertisements
Track Severe Weather on mobile